Accueil
METAR-TAF:

METAR-TAF

Aéroports :

Aéroport international de Luang Prabang

Luang Prabang, Laos

latitude: 19-53N, longitude: 102-08E, altitude: 305 m

Observation

Le bulletin a été fait il y a 21 minutes, à 02:00 UTC
Vent 2 kt de sud-ouest
Température 24°C
Humidité 94%
Pression 1011 hPa
Visibilité: 6000 m
Nuages épars à une hauteur de 1000 ft
Ciel couvert à une hauteur de 7000 ft
pluie

METAR: VLLB 020200Z 22002KT 6000 RA SCT010 OVC070 24/23 Q1011 NOSIG

Heure: 09:21 (02:21 UTC)

Prévision

Le bulletin a été fait il y a 3 heures et 21 minutes, à 23:00 UTC
Prévision valable du 02 à 00 UTC au 02 à 24 UTC
Vent 6 kt de ouest/sud-ouest
Visibilité 10 km ou plus
Nuages épars à une hauteur de 1600 ft
Nuages épars à une hauteur de 6000 ft
Nuages fragmentés à une hauteur de 8000 ft

TAF: VLLB 012300Z 0200/0224 24006KT 9999 SCT016 SCT060 BKN080

Observations et prévisions météorologiques de plus de 4000 aéroports (messages METAR et TAF).

Les stations disponibles sont représentées par des disques jaunes et rouges sur la carte.

Passer la souris dessus pour voir le nom de la station.

Cliquer dessus pour voir les observations et prévisions météorologiques.

Pour changer de carte: cliquez sur les boutons verts avec une croix noire pour zoomer, sur le bouton vert avec un tiret pour effectuer un zoom arrière, ou sur les flèches vertes pour les cartes adjacentes.


METAR-TAF: